createdAt,value
2018-11-25T00:02:04.833Z,27.27
2018-11-25T00:04:33.442Z,24.80
2018-11-25T00:07:02.069Z,26.90
2018-11-25T00:09:30.732Z,26.00
2018-11-25T00:11:59.337Z,26.63
2018-11-25T00:14:27.926Z,26.03
2018-11-25T00:16:56.537Z,25.93
2018-11-25T00:19:25.123Z,24.67
2018-11-25T00:21:53.758Z,27.63
2018-11-25T00:24:22.350Z,28.27
2018-11-25T00:26:50.959Z,29.73
2018-11-25T00:29:19.555Z,27.23
2018-11-25T00:31:48.201Z,26.73
2018-11-25T00:34:16.795Z,26.83
2018-11-25T00:36:45.424Z,27.07
2018-11-25T00:39:14.030Z,27.30
2018-11-25T00:41:42.672Z,29.53
2018-11-25T00:44:11.298Z,29.40
2018-11-25T00:46:39.986Z,28.23
2018-11-25T00:49:08.662Z,31.57
2018-11-25T00:51:37.294Z,31.30
2018-11-25T00:54:06.061Z,28.97
2018-11-25T00:56:34.707Z,30.37
2018-11-25T00:59:04.054Z,32.13
2018-11-25T01:01:32.714Z,32.27
2018-11-25T01:04:01.849Z,29.27
2018-11-25T01:06:30.490Z,31.57
2018-11-25T01:08:59.105Z,32.63
2018-11-25T01:11:27.718Z,30.30
2018-11-25T01:13:56.337Z,29.23
2018-11-25T01:16:24.947Z,29.40
2018-11-25T01:18:53.563Z,27.43
2018-11-25T01:21:22.225Z,27.13
2018-11-25T01:23:50.813Z,30.80
2018-11-25T01:26:19.423Z,26.90
2018-11-25T01:28:48.015Z,25.90
2018-11-25T01:31:16.627Z,30.43
2018-11-25T01:33:45.231Z,33.57
2018-11-25T01:36:13.838Z,28.20
2018-11-25T01:38:42.449Z,30.80
2018-11-25T01:41:11.076Z,31.43
2018-11-25T01:43:39.674Z,30.17
2018-11-25T01:46:08.301Z,30.60
2018-11-25T01:48:36.903Z,28.33
2018-11-25T01:51:05.754Z,30.73
2018-11-25T01:53:34.359Z,28.33
2018-11-25T01:56:02.998Z,30.23
2018-11-25T01:58:31.590Z,26.23
2018-11-25T02:01:00.221Z,25.97
2018-11-25T02:03:28.825Z,31.00
2018-11-25T02:05:57.526Z,28.33
2018-11-25T02:08:26.146Z,32.03
2018-11-25T02:10:54.759Z,30.33
2018-11-25T02:13:23.368Z,28.90
2018-11-25T02:15:53.841Z,27.83
2018-11-25T02:18:22.507Z,29.17
2018-11-25T02:20:51.126Z,28.47
2018-11-25T02:23:19.793Z,28.83
2018-11-25T02:25:48.409Z,27.37
2018-11-25T02:28:16.994Z,31.97
2018-11-25T02:30:45.610Z,27.67
2018-11-25T02:33:14.226Z,30.50
2018-11-25T02:35:42.811Z,29.10
2018-11-25T02:38:11.441Z,28.07
2018-11-25T02:40:40.099Z,28.27
2018-11-25T02:43:08.694Z,29.67
2018-11-25T02:45:37.303Z,27.27
2018-11-25T02:48:05.914Z,27.67
2018-11-25T02:50:34.554Z,26.43
2018-11-25T02:53:05.422Z,29.40
2018-11-25T02:55:34.049Z,24.33
2018-11-25T02:58:02.690Z,24.33
2018-11-25T03:00:31.338Z,25.53
2018-11-25T03:02:59.995Z,22.83
2018-11-25T03:05:28.683Z,24.73
2018-11-25T03:07:57.362Z,25.80
2018-11-25T03:10:26.024Z,24.63
2018-11-25T03:12:54.618Z,24.77
2018-11-25T03:15:23.246Z,23.73
2018-11-25T03:17:51.851Z,24.17
2018-11-25T03:20:20.502Z,24.93
2018-11-25T03:22:49.114Z,27.63
2018-11-25T03:25:19.606Z,31.23
2018-11-25T03:27:48.283Z,25.90
2018-11-25T03:30:17.924Z,35.47
2018-11-25T03:32:47.461Z,33.73
2018-11-25T03:35:16.105Z,29.90
2018-11-25T03:37:44.771Z,26.03
2018-11-25T03:40:16.266Z,27.97
2018-11-25T03:42:44.944Z,25.70
2018-11-25T03:45:16.465Z,42.50
2018-11-25T03:47:45.134Z,24.00
2018-11-25T03:50:14.449Z,24.23
2018-11-25T03:52:43.038Z,25.77
2018-11-25T03:55:12.820Z,24.70
2018-11-25T03:57:41.474Z,25.17
2018-11-25T04:00:18.819Z,24.93
2018-11-25T04:02:47.546Z,30.23
2018-11-25T04:05:16.981Z,29.63
2018-11-25T04:07:45.602Z,23.53
2018-11-25T04:10:15.894Z,25.50
2018-11-25T04:12:44.573Z,23.80
2018-11-25T04:15:16.121Z,28.27
2018-11-25T04:17:44.834Z,24.87
2018-11-25T04:20:15.289Z,25.23
2018-11-25T04:22:43.932Z,41.40
2018-11-25T04:25:13.148Z,29.90
2018-11-25T04:27:41.771Z,30.43
2018-11-25T04:30:14.191Z,28.63
2018-11-25T04:32:43.152Z,25.57
2018-11-25T04:35:12.517Z,29.03
2018-11-25T04:37:41.216Z,38.87
2018-11-25T04:40:11.120Z,24.83
2018-11-25T04:42:39.724Z,28.83
2018-11-25T04:45:10.488Z,30.90
2018-11-25T04:47:39.207Z,33.70
2018-11-25T04:50:10.564Z,30.37
2018-11-25T04:52:39.197Z,30.00
2018-11-25T04:55:08.273Z,28.77
2018-11-25T04:57:36.888Z,29.77
2018-11-25T05:00:10.592Z,30.30
2018-11-25T05:02:39.554Z,32.97
2018-11-25T05:05:10.614Z,38.47
2018-11-25T05:07:39.263Z,27.13
2018-11-25T05:10:13.096Z,30.33
2018-11-25T05:12:41.794Z,27.17
2018-11-25T05:15:18.372Z,28.90
2018-11-25T05:17:47.054Z,34.13
2018-11-25T05:20:16.269Z,32.90
2018-11-25T05:22:44.905Z,36.07
2018-11-25T05:25:15.471Z,33.57
2018-11-25T05:27:44.138Z,34.00
2018-11-25T05:30:15.123Z,33.40
2018-11-25T05:32:43.751Z,29.07
2018-11-25T05:35:13.505Z,31.27
2018-11-25T05:37:42.159Z,29.87
2018-11-25T05:40:12.655Z,29.33
2018-11-25T05:42:41.300Z,27.07
2018-11-25T05:45:11.330Z,27.60
2018-11-25T05:47:40.224Z,32.67
2018-11-25T05:50:11.293Z,33.33
2018-11-25T05:52:39.994Z,45.37
2018-11-25T05:55:09.541Z,35.67
2018-11-25T05:57:38.158Z,44.23
2018-11-25T06:00:23.910Z,37.83
2018-11-25T06:02:52.539Z,27.13
2018-11-25T06:05:21.229Z,23.50
2018-11-25T06:07:49.864Z,42.67
2018-11-25T06:10:18.459Z,33.13
2018-11-25T06:12:47.084Z,36.87
2018-11-25T06:15:15.710Z,34.03
2018-11-25T06:17:44.343Z,30.47
2018-11-25T06:20:15.866Z,31.13
2018-11-25T06:22:44.737Z,26.20
2018-11-25T06:25:15.369Z,26.83
2018-11-25T06:27:44.018Z,24.80
2018-11-25T06:30:13.743Z,20.77
2018-11-25T06:32:42.385Z,24.33
2018-11-25T06:35:12.067Z,22.83
2018-11-25T06:37:40.702Z,19.90
2018-11-25T06:40:16.817Z,23.30
2018-11-25T06:42:45.519Z,21.53
2018-11-25T06:45:16.528Z,21.93
2018-11-25T06:47:45.175Z,19.80
2018-11-25T06:50:13.881Z,20.60
2018-11-25T06:52:42.518Z,19.73
2018-11-25T06:55:12.191Z,18.00
2018-11-25T06:57:40.831Z,16.97
2018-11-25T07:00:13.327Z,19.63
2018-11-25T07:02:41.974Z,19.03
2018-11-25T07:05:10.831Z,18.40
2018-11-25T07:07:39.522Z,33.07
2018-11-25T07:10:11.484Z,27.20
2018-11-25T07:12:40.143Z,23.63
2018-11-25T07:15:10.522Z,22.67
2018-11-25T07:17:39.179Z,18.10
2018-11-25T07:20:15.988Z,16.23
2018-11-25T07:22:44.698Z,16.30
2018-11-25T07:25:20.792Z,17.43
2018-11-25T07:27:49.434Z,16.20
2018-11-25T07:30:23.738Z,16.10
2018-11-25T07:32:52.385Z,16.00
2018-11-25T07:35:21.247Z,16.20
2018-11-25T07:37:49.936Z,20.43
2018-11-25T07:40:19.548Z,14.93
2018-11-25T07:42:48.421Z,17.53
2018-11-25T07:45:19.057Z,16.73
2018-11-25T07:47:47.697Z,15.50
2018-11-25T07:50:16.352Z,15.83
2018-11-25T07:52:46.872Z,16.67
2018-11-25T07:55:18.570Z,16.77
2018-11-25T07:57:47.684Z,17.33
2018-11-25T08:00:19.132Z,15.53
2018-11-25T08:02:48.310Z,16.97
2018-11-25T08:05:32.605Z,16.27
2018-11-25T08:08:01.577Z,17.87
2018-11-25T08:10:30.187Z,17.47
2018-11-25T08:12:58.855Z,17.60
2018-11-25T08:15:27.481Z,17.10
2018-11-25T08:17:56.149Z,19.00
2018-11-25T08:20:24.813Z,18.43
2018-11-25T08:22:53.503Z,17.80
2018-11-25T08:25:22.616Z,19.73
2018-11-25T08:27:51.340Z,17.93
2018-11-25T08:30:20.869Z,18.63
2018-11-25T08:32:49.679Z,19.10
2018-11-25T08:35:18.608Z,19.07
2018-11-25T08:37:47.251Z,20.07
2018-11-25T08:40:23.657Z,19.60
2018-11-25T08:42:52.596Z,17.50
2018-11-25T08:45:21.248Z,17.57
2018-11-25T08:47:49.919Z,17.53
2018-11-25T08:50:19.282Z,18.03
2018-11-25T08:52:50.726Z,17.80
2018-11-25T08:55:20.596Z,18.60
2018-11-25T08:57:49.479Z,18.23
2018-11-25T09:00:19.023Z,17.57
2018-11-25T09:02:48.174Z,20.20
2018-11-25T09:05:16.846Z,19.43
2018-11-25T09:07:45.554Z,18.20
2018-11-25T09:10:21.501Z,19.10
2018-11-25T09:12:57.887Z,18.67
2018-11-25T09:15:28.835Z,19.73
2018-11-25T09:17:57.526Z,18.40
2018-11-25T09:20:26.228Z,18.00
2018-11-25T09:22:54.842Z,18.97
2018-11-25T09:25:28.809Z,18.97
2018-11-25T09:27:58.245Z,19.83
2018-11-25T09:30:27.868Z,19.53
2018-11-25T09:32:56.538Z,19.27
2018-11-25T09:35:25.402Z,18.07
2018-11-25T09:37:54.077Z,20.47
2018-11-25T09:40:23.703Z,19.50
2018-11-25T09:42:52.342Z,18.17
2018-11-25T09:45:21.171Z,19.63
2018-11-25T09:47:50.062Z,17.33
2018-11-25T09:50:22.307Z,22.87
2018-11-25T09:52:51.048Z,20.43
2018-11-25T09:55:22.565Z,23.53
2018-11-25T09:58:00.766Z,21.50
2018-11-25T10:00:33.530Z,23.70
2018-11-25T10:03:03.354Z,21.87
2018-11-25T10:05:32.035Z,21.67
2018-11-25T10:08:00.653Z,22.03
2018-11-25T10:10:30.285Z,20.83
2018-11-25T10:12:58.939Z,23.70
2018-11-25T10:15:28.418Z,21.33
2018-11-25T10:17:59.937Z,18.97
2018-11-25T10:20:28.072Z,17.30
2018-11-25T10:22:56.904Z,21.43
2018-11-25T10:25:25.517Z,18.60
2018-11-25T10:27:54.260Z,19.23
2018-11-25T10:30:25.912Z,16.73
2018-11-25T10:32:57.904Z,18.47
2018-11-25T10:35:26.529Z,17.23
2018-11-25T10:37:55.197Z,17.70
2018-11-25T10:40:24.551Z,16.93
2018-11-25T10:42:53.503Z,16.13
2018-11-25T10:45:24.941Z,16.17
2018-11-25T10:47:53.782Z,17.97
2018-11-25T10:50:22.601Z,17.50
2018-11-25T10:52:51.355Z,14.77
2018-11-25T10:55:20.717Z,15.87
2018-11-25T10:57:51.163Z,13.37
2018-11-25T11:00:30.086Z,13.10
2018-11-25T11:03:04.341Z,14.33
2018-11-25T11:05:38.326Z,15.17
2018-11-25T11:08:07.674Z,14.27
2018-11-25T11:10:36.287Z,13.83
2018-11-25T11:13:05.398Z,13.57
2018-11-25T11:15:34.024Z,14.57
2018-11-25T11:18:02.838Z,16.00
2018-11-25T11:20:31.484Z,14.60
2018-11-25T11:23:00.667Z,13.33
2018-11-25T11:25:29.343Z,15.87
2018-11-25T11:27:57.954Z,12.77
2018-11-25T11:30:26.635Z,14.40
2018-11-25T11:32:55.295Z,15.13
2018-11-25T11:35:23.963Z,16.43
2018-11-25T11:37:52.571Z,12.93
2018-11-25T11:40:21.274Z,14.60
2018-11-25T11:42:49.886Z,16.77
2018-11-25T11:45:18.510Z,15.93
2018-11-25T11:47:47.138Z,13.00
2018-11-25T11:50:17.073Z,14.47
2018-11-25T11:52:45.693Z,15.33
2018-11-25T11:55:15.572Z,14.13
2018-11-25T11:57:44.873Z,14.67
2018-11-25T12:00:19.828Z,12.33
2018-11-25T12:02:48.510Z,14.57
2018-11-25T12:05:17.198Z,13.60
2018-11-25T12:07:45.870Z,12.33
2018-11-25T12:10:15.390Z,13.13
2018-11-25T12:12:44.058Z,12.57
2018-11-25T12:15:18.769Z,11.93
2018-11-25T12:17:47.487Z,12.10
2018-11-25T12:20:16.521Z,11.13
2018-11-25T12:22:45.438Z,12.50
2018-11-25T12:25:15.177Z,13.43
2018-11-25T12:27:43.851Z,11.00
2018-11-25T12:30:13.645Z,11.40
2018-11-25T12:32:42.890Z,12.00
2018-11-25T12:35:12.724Z,13.77
2018-11-25T12:37:41.399Z,12.20
2018-11-25T12:40:12.226Z,13.10
2018-11-25T12:42:41.602Z,12.50
2018-11-25T12:45:13.316Z,14.17
2018-11-25T12:47:42.452Z,14.03
2018-11-25T12:50:13.674Z,12.20
2018-11-25T12:52:43.722Z,13.63
2018-11-25T12:55:17.131Z,13.00
2018-11-25T12:57:46.423Z,12.27
2018-11-25T13:00:23.862Z,12.70
2018-11-25T13:02:53.034Z,13.43
2018-11-25T13:05:22.168Z,17.00
2018-11-25T13:07:52.161Z,13.03
2018-11-25T13:10:21.268Z,13.10
2018-11-25T13:12:50.466Z,12.17
2018-11-25T13:15:19.614Z,13.30
2018-11-25T13:17:48.747Z,13.40
2018-11-25T13:20:17.909Z,13.83
2018-11-25T13:22:47.952Z,13.20
2018-11-25T13:25:18.604Z,11.53
2018-11-25T13:27:47.795Z,11.67
2018-11-25T13:30:23.989Z,11.50
2018-11-25T13:32:55.073Z,10.93
2018-11-25T13:35:25.750Z,11.40
2018-11-25T13:37:54.945Z,12.47
2018-11-25T13:40:24.833Z,11.80
2018-11-25T13:42:54.038Z,13.13
2018-11-25T13:45:23.202Z,12.70
2018-11-25T13:47:53.220Z,12.93
2018-11-25T13:50:23.301Z,12.17
2018-11-25T13:52:53.436Z,13.13
2018-11-25T13:55:25.523Z,13.53
2018-11-25T13:57:55.452Z,11.37
2018-11-25T14:00:36.826Z,16.47
2018-11-25T14:03:08.244Z,11.33
2018-11-25T14:05:36.930Z,12.07
2018-11-25T14:08:06.499Z,11.50
2018-11-25T14:10:35.431Z,14.43
2018-11-25T14:13:04.158Z,12.07
2018-11-25T14:15:33.058Z,11.77
2018-11-25T14:18:02.090Z,11.40
2018-11-25T14:20:30.770Z,12.63
2018-11-25T14:22:59.418Z,13.07
2018-11-25T14:25:28.222Z,12.63
2018-11-25T14:27:59.885Z,13.27
2018-11-25T14:30:29.856Z,12.80
2018-11-25T14:32:58.670Z,13.90
2018-11-25T14:35:27.455Z,14.10
2018-11-25T14:37:58.913Z,14.60
2018-11-25T14:40:27.658Z,14.53
2018-11-25T14:42:56.303Z,14.20
2018-11-25T14:45:25.015Z,13.50
2018-11-25T14:47:53.658Z,16.47
2018-11-25T14:50:22.325Z,14.70
2018-11-25T14:52:52.126Z,17.00
2018-11-25T14:55:21.229Z,14.67
2018-11-25T14:57:49.948Z,14.73
2018-11-25T15:00:21.715Z,17.40
2018-11-25T15:02:57.123Z,15.87
2018-11-25T15:05:32.570Z,15.23
2018-11-25T15:08:01.543Z,15.57
2018-11-25T15:10:30.209Z,15.83
2018-11-25T15:12:59.104Z,15.73
2018-11-25T15:15:27.787Z,15.63
2018-11-25T15:17:56.450Z,17.40
2018-11-25T15:20:25.097Z,17.63
2018-11-25T15:22:56.549Z,17.47
2018-11-25T15:25:27.000Z,15.93
2018-11-25T15:27:55.672Z,14.33
2018-11-25T15:30:24.306Z,12.53
2018-11-25T15:32:52.938Z,12.70
2018-11-25T15:35:21.594Z,14.33
2018-11-25T15:37:51.141Z,11.83
2018-11-25T15:40:22.174Z,11.70
2018-11-25T15:42:50.831Z,10.93
2018-11-25T15:45:19.472Z,11.83
2018-11-25T15:47:51.709Z,11.27
2018-11-25T15:50:23.022Z,10.20
2018-11-25T15:52:51.690Z,10.37
2018-11-25T15:55:20.530Z,10.63
2018-11-25T15:57:49.154Z,10.60
2018-11-25T16:00:19.903Z,10.57
2018-11-25T16:02:48.693Z,11.53
2018-11-25T16:05:23.653Z,11.27
2018-11-25T16:07:52.337Z,11.70
2018-11-25T16:10:21.080Z,11.03
2018-11-25T16:12:50.442Z,11.97
2018-11-25T16:15:20.183Z,12.47
2018-11-25T16:17:49.015Z,12.83
2018-11-25T16:20:21.514Z,12.23
2018-11-25T16:22:51.627Z,12.47
2018-11-25T16:25:41.474Z,11.33
2018-11-25T16:28:19.666Z,12.07
2018-11-25T16:30:48.279Z,13.87
2018-11-25T16:33:16.917Z,12.40
2018-11-25T16:35:45.549Z,12.90
2018-11-25T16:38:14.193Z,13.37
2018-11-25T16:40:42.807Z,14.17
2018-11-25T16:43:11.427Z,13.90
2018-11-25T16:45:40.078Z,13.80
2018-11-25T16:48:08.832Z,13.20
2018-11-25T16:50:37.421Z,12.53
2018-11-25T16:53:06.818Z,10.77
2018-11-25T16:55:35.443Z,11.43
2018-11-25T16:58:04.107Z,11.20
2018-11-25T17:00:32.739Z,10.57
2018-11-25T17:03:01.388Z,11.67
2018-11-25T17:05:32.899Z,11.67
2018-11-25T17:08:07.624Z,11.80
2018-11-25T17:10:36.278Z,11.63
2018-11-25T17:13:04.917Z,12.13
2018-11-25T17:15:33.571Z,11.07
2018-11-25T17:18:02.519Z,9.97
2018-11-25T17:20:31.351Z,10.17
2018-11-25T17:22:59.978Z,10.73
2018-11-25T17:25:28.625Z,9.93
2018-11-25T17:27:57.210Z,9.80
2018-11-25T17:30:25.874Z,10.17
2018-11-25T17:32:54.498Z,10.30
2018-11-25T17:35:27.414Z,10.50
2018-11-25T17:37:56.047Z,9.53
2018-11-25T17:40:24.661Z,9.60
2018-11-25T17:42:53.734Z,10.77
2018-11-25T17:45:22.379Z,11.10
2018-11-25T17:47:50.997Z,9.77
2018-11-25T17:50:25.829Z,10.23
2018-11-25T17:52:54.461Z,11.37
2018-11-25T17:55:24.254Z,11.13
2018-11-25T17:57:53.130Z,11.10
2018-11-25T18:00:38.746Z,11.03
2018-11-25T18:03:11.353Z,10.70
2018-11-25T18:05:39.956Z,11.17
2018-11-25T18:08:08.929Z,10.73
2018-11-25T18:10:37.558Z,10.60
2018-11-25T18:13:06.796Z,11.87
2018-11-25T18:15:35.417Z,11.87
2018-11-25T18:18:09.518Z,11.47
2018-11-25T18:20:46.715Z,11.00
2018-11-25T18:23:15.401Z,12.40
2018-11-25T18:25:44.020Z,12.13
2018-11-25T18:28:12.839Z,12.40
2018-11-25T18:30:41.459Z,13.67
2018-11-25T18:33:10.299Z,11.57
2018-11-25T18:35:38.911Z,10.00
2018-11-25T18:38:08.222Z,8.97
2018-11-25T18:40:43.309Z,9.20
2018-11-25T18:43:11.918Z,10.57
2018-11-25T18:45:40.523Z,10.90
2018-11-25T18:48:10.477Z,11.43
2018-11-25T18:50:39.061Z,11.03
2018-11-25T18:53:08.933Z,9.70
2018-11-25T18:55:36.356Z,9.60
2018-11-25T18:58:05.062Z,12.60
2018-11-25T19:00:41.475Z,9.50
2018-11-25T19:03:10.123Z,10.67
2018-11-25T19:05:38.774Z,9.70
2018-11-25T19:08:08.626Z,9.77
2018-11-25T19:10:37.290Z,10.80
2018-11-25T19:13:06.094Z,11.00
2018-11-25T19:15:34.702Z,9.60
2018-11-25T19:18:04.662Z,9.70
2018-11-25T19:20:33.258Z,9.70
2018-11-25T19:23:01.995Z,10.13
2018-11-25T19:25:30.609Z,10.73
2018-11-25T19:27:59.268Z,10.00
2018-11-25T19:30:27.896Z,10.50
2018-11-25T19:32:56.523Z,10.90
2018-11-25T19:35:25.190Z,8.70
2018-11-25T19:37:53.806Z,9.90
2018-11-25T19:40:24.754Z,8.47
2018-11-25T19:42:53.389Z,11.00
2018-11-25T19:45:24.156Z,9.17
2018-11-25T19:47:52.808Z,8.70
2018-11-25T19:50:28.794Z,8.33
2018-11-25T19:52:57.482Z,9.80
2018-11-25T19:55:26.109Z,9.07
2018-11-25T19:57:54.726Z,8.30
2018-11-25T20:00:24.323Z,8.43
2018-11-25T20:02:52.959Z,9.43
2018-11-25T20:05:21.641Z,11.17
2018-11-25T20:07:50.361Z,10.63
2018-11-25T20:10:20.069Z,9.10
2018-11-25T20:12:50.459Z,8.80
2018-11-25T20:15:19.706Z,8.10
2018-11-25T20:17:54.025Z,9.13
2018-11-25T20:20:18.924Z,8.47
2018-11-25T20:22:47.794Z,8.37
2018-11-25T20:25:16.832Z,8.70
2018-11-25T20:27:47.361Z,8.87
2018-11-25T20:30:18.894Z,8.13
2018-11-25T20:32:52.699Z,8.47
2018-11-25T20:35:21.353Z,7.87
2018-11-25T20:37:55.170Z,8.93
2018-11-25T20:40:23.798Z,7.50
2018-11-25T20:42:52.538Z,9.17
2018-11-25T20:45:27.019Z,8.57
2018-11-25T20:47:56.725Z,9.13
2018-11-25T20:50:25.336Z,7.40
2018-11-25T20:52:59.132Z,7.80
2018-11-25T20:55:27.751Z,7.67
2018-11-25T20:57:56.379Z,8.67
2018-11-25T21:00:26.213Z,7.73
2018-11-25T21:02:54.904Z,7.63
2018-11-25T21:05:23.887Z,7.07
2018-11-25T21:07:53.155Z,7.47
2018-11-25T21:10:21.770Z,7.67
2018-11-25T21:12:51.681Z,8.63
2018-11-25T21:15:20.326Z,8.07
2018-11-25T21:17:48.956Z,7.50
2018-11-25T21:20:19.894Z,8.50
2018-11-25T21:22:48.531Z,7.50
2018-11-25T21:25:18.972Z,8.63
2018-11-25T21:27:47.686Z,8.27
2018-11-25T21:30:19.337Z,7.33
2018-11-25T21:32:48.977Z,8.47
2018-11-25T21:35:17.680Z,7.30
2018-11-25T21:37:46.402Z,7.90
2018-11-25T21:40:17.043Z,8.00
2018-11-25T21:42:45.775Z,8.00
2018-11-25T21:45:15.512Z,8.47
2018-11-25T21:47:44.237Z,7.67
2018-11-25T21:50:15.046Z,7.80
2018-11-25T21:52:43.670Z,7.97
2018-11-25T21:55:16.095Z,7.80
2018-11-25T21:57:44.716Z,8.63
2018-11-25T22:00:14.502Z,8.73
2018-11-25T22:02:43.192Z,8.50
2018-11-25T22:05:12.363Z,8.50
2018-11-25T22:07:40.989Z,8.10
2018-11-25T22:10:10.721Z,7.57
2018-11-25T22:12:40.048Z,9.70
2018-11-25T22:15:09.966Z,8.63
2018-11-25T22:17:38.576Z,8.67
2018-11-25T22:20:08.901Z,8.57
2018-11-25T22:22:37.505Z,8.67
2018-11-25T22:25:08.516Z,9.43
2018-11-25T22:27:37.191Z,9.33
2018-11-25T22:30:14.898Z,9.67
2018-11-25T22:32:43.498Z,9.43
2018-11-25T22:35:14.751Z,9.47
2018-11-25T22:37:43.390Z,9.93
2018-11-25T22:40:12.907Z,9.83
2018-11-25T22:42:42.391Z,11.03
2018-11-25T22:45:13.706Z,9.90
2018-11-25T22:47:42.330Z,9.87
2018-11-25T22:50:13.066Z,10.03
2018-11-25T22:52:41.720Z,9.87
2018-11-25T22:55:12.742Z,10.70
2018-11-25T22:57:41.367Z,9.90
2018-11-25T23:00:42.642Z,9.90
2018-11-25T23:03:11.268Z,10.00
2018-11-25T23:05:51.054Z,9.57
2018-11-25T23:08:19.677Z,10.77
2018-11-25T23:10:48.315Z,10.50
2018-11-25T23:13:16.922Z,11.20
2018-11-25T23:15:45.668Z,12.17
2018-11-25T23:18:14.308Z,11.13
2018-11-25T23:20:42.958Z,13.10
2018-11-25T23:23:11.554Z,13.53
2018-11-25T23:25:40.207Z,11.37
2018-11-25T23:28:08.814Z,10.47
2018-11-25T23:30:37.445Z,12.23
2018-11-25T23:33:06.129Z,12.37
2018-11-25T23:35:35.091Z,11.53
2018-11-25T23:38:03.725Z,11.73
2018-11-25T23:40:32.367Z,11.30
2018-11-25T23:43:00.946Z,12.23
2018-11-25T23:45:29.619Z,11.43
2018-11-25T23:47:58.213Z,12.53
2018-11-25T23:50:26.856Z,11.70
2018-11-25T23:52:55.470Z,11.40
2018-11-25T23:55:24.122Z,12.83
2018-11-25T23:57:52.723Z,14.13
